Pagina principale
METAR-TAF:

METAR-TAF

Aeroporti :

Aeroporto di Treviso-Sant'Angelo

Treviso, Italia

latitudine: 45-39N, longitudine: 012-11E, altezza: 18 m

Osservazione

Il bollettino è stato emesso 41 minuti fa, alle 04:50 UTC
Vento 1 kt da direzioni variabili
Temperature 0°C
Umidità 100%
Pressione 1022 hPa
Visibilità: 0050 m
nebbia che ghiaccia

METAR: LIPH 190450Z AUTO VRB01KT 0050 R07/0250N FZFG VV001 M00/M00 Q1022

Ora: 06:31 (05:31 UTC)

Previsione

Il bollettino è stato emesso 6 ore e 31 minuti fa, alle 23:00 UTC
Previsione valida dal 19 alle 00 UTC al 19 alle 24 UTC
Vento 5 kt da direzioni variabili
Visibilità: 0100 m
Cielo coperto ad un'altezza di 100 ft
nebbia
Evoluzione graduale
dal 19 alle 14 UTC al 19 alle 17 UTC
Visibilità: 2000 m
Nubi sparse ad un'altezza di 1500 ft
foschia

TAF: LIPH 182300Z 1900/1924 VRB05KT 0100 FG OVC001 BECMG 1914/1917 2000 BR SCT015

Osservazioni e previsioni meteorologiche di più di 4000 aeroporti (messaggi METAR e TAF).

Le stazioni disponibili sono rappresentate dai dischi gialli e rossi sulla carta.

Puntare il mouse per vedere il nome della stazione.

Clicca sopra per visualizzare le osservazioni e previsioni meteorologiche.

Per cambiare la mappa : fare clic sui pulsanti verdi con una croce nera per ingrandire, il pulsante verde con un trattino per diminuire, o sulla freccia verde per le mappe adiacenti.


METAR-TAF: